createdAt,value
2019-02-09T00:00:10.667Z,15.7
2019-02-09T00:01:11.906Z,15.7
2019-02-09T00:02:13.150Z,15.7
2019-02-09T00:03:14.442Z,15.5
2019-02-09T00:04:15.696Z,15.5
2019-02-09T00:05:16.946Z,15.6
2019-02-09T00:06:18.334Z,15.4
2019-02-09T00:07:19.591Z,15.5
2019-02-09T00:08:21.184Z,15.3
2019-02-09T00:09:22.454Z,15.2
2019-02-09T00:10:23.707Z,15.1
2019-02-09T00:11:24.970Z,15.3
2019-02-09T00:12:26.218Z,15.3
2019-02-09T00:13:27.508Z,15.3
2019-02-09T00:14:29.311Z,15.4
2019-02-09T00:15:30.567Z,15.4
2019-02-09T00:16:31.904Z,15.3
2019-02-09T00:17:33.551Z,15.2
2019-02-09T00:18:37.233Z,15.2
2019-02-09T00:19:38.716Z,15.3
2019-02-09T00:20:40.006Z,15.3
2019-02-09T00:21:41.280Z,15.2
2019-02-09T00:22:42.800Z,15
2019-02-09T00:23:44.099Z,15.1
2019-02-09T00:24:45.350Z,15
2019-02-09T00:25:46.615Z,14.8
2019-02-09T00:26:47.907Z,14.9
2019-02-09T00:27:49.507Z,15
2019-02-09T00:28:50.797Z,14.7
2019-02-09T00:29:52.064Z,14.8
2019-02-09T00:30:53.348Z,14.9
2019-02-09T00:31:54.640Z,14.9
2019-02-09T00:32:55.911Z,15
2019-02-09T00:33:57.214Z,14.9
2019-02-09T00:34:58.515Z,14.8
2019-02-09T00:35:59.810Z,14.6
2019-02-09T00:37:01.061Z,14.8
2019-02-09T00:38:02.334Z,14.9
2019-02-09T00:39:03.648Z,14.9
2019-02-09T00:40:04.876Z,14.6
2019-02-09T00:41:06.120Z,14.7
2019-02-09T00:42:07.380Z,14.7
2019-02-09T00:43:08.633Z,14.6
2019-02-09T00:44:10.958Z,14.6
2019-02-09T00:45:12.216Z,14.6
2019-02-09T00:46:13.468Z,14.7
2019-02-09T00:47:14.733Z,14.8
2019-02-09T00:48:16.016Z,14.9
2019-02-09T00:49:17.300Z,14.7
2019-02-09T00:50:21.599Z,14.7
2019-02-09T00:51:22.841Z,14.7
2019-02-09T00:52:24.072Z,14.8
2019-02-09T00:53:28.170Z,14.7
2019-02-09T00:54:29.615Z,14.5
2019-02-09T00:55:30.868Z,14.4
2019-02-09T00:56:32.102Z,14.5
2019-02-09T00:57:33.348Z,14.6
2019-02-09T00:58:34.603Z,14.6
2019-02-09T00:59:35.907Z,14.6
2019-02-09T01:00:37.186Z,14.5
2019-02-09T01:01:38.470Z,14.3
2019-02-09T01:02:39.722Z,14.4
2019-02-09T01:03:41.021Z,14.5
2019-02-09T01:04:42.313Z,14.6
2019-02-09T01:05:43.562Z,14.5
2019-02-09T01:06:44.819Z,14.4
2019-02-09T01:07:46.084Z,14.4
2019-02-09T01:08:47.348Z,14.3
2019-02-09T01:09:48.948Z,14.4
2019-02-09T01:10:50.210Z,14.4
2019-02-09T01:11:51.468Z,14.4
2019-02-09T01:12:52.727Z,14.4
2019-02-09T01:13:54.288Z,14.4
2019-02-09T01:14:55.617Z,14.4
2019-02-09T01:15:56.895Z,14.4
2019-02-09T01:16:58.137Z,14.4
2019-02-09T01:17:59.394Z,14.4
2019-02-09T01:19:00.660Z,14.2
2019-02-09T01:20:01.945Z,14.2
2019-02-09T01:21:03.375Z,14.2
2019-02-09T01:22:07.071Z,14.3
2019-02-09T01:23:08.326Z,14.3
2019-02-09T01:24:09.559Z,14.2
2019-02-09T01:25:10.902Z,14.2
2019-02-09T01:26:12.177Z,14.2
2019-02-09T01:27:13.423Z,14.3
2019-02-09T01:28:15.275Z,14.3
2019-02-09T01:29:16.615Z,14.1
2019-02-09T01:30:19.178Z,14.1
2019-02-09T01:31:20.413Z,14.2
2019-02-09T01:32:21.698Z,14.3
2019-02-09T01:33:23.191Z,14.2
2019-02-09T01:34:24.429Z,14.1
2019-02-09T01:35:25.721Z,14
2019-02-09T01:36:27.195Z,14.1
2019-02-09T01:37:28.445Z,14.2
2019-02-09T01:38:29.715Z,14.1
2019-02-09T01:39:30.947Z,14
2019-02-09T01:40:32.285Z,14
2019-02-09T01:41:33.610Z,14.1
2019-02-09T01:42:34.873Z,14.1
2019-02-09T01:43:36.283Z,14.1
2019-02-09T01:44:37.527Z,14.1
2019-02-09T01:45:38.815Z,14
2019-02-09T01:46:40.297Z,14
2019-02-09T01:47:41.777Z,14
2019-02-09T01:48:43.003Z,13.9
2019-02-09T01:49:44.291Z,14
2019-02-09T01:50:45.568Z,14
2019-02-09T01:51:46.801Z,13.9
2019-02-09T01:52:48.123Z,13.8
2019-02-09T01:53:49.352Z,13.9
2019-02-09T01:54:51.929Z,13.9
2019-02-09T01:55:53.236Z,13.9
2019-02-09T01:56:54.753Z,14
2019-02-09T01:57:56.040Z,14
2019-02-09T01:58:57.285Z,13.9
2019-02-09T01:59:58.541Z,13.9
2019-02-09T02:01:01.299Z,14
2019-02-09T02:02:02.579Z,13.9
2019-02-09T02:03:03.921Z,13.7
2019-02-09T02:04:05.169Z,13.6
2019-02-09T02:05:06.454Z,13.8
2019-02-09T02:06:07.767Z,13.9
2019-02-09T02:07:09.029Z,13.9
2019-02-09T02:08:10.273Z,13.8
2019-02-09T02:09:11.507Z,13.8
2019-02-09T02:10:12.783Z,13.8
2019-02-09T02:11:14.311Z,13.9
2019-02-09T02:12:15.549Z,13.7
2019-02-09T02:13:16.787Z,13.8
2019-02-09T02:14:18.037Z,13.8
2019-02-09T02:15:19.286Z,13.8
2019-02-09T02:16:20.567Z,13.8
2019-02-09T02:17:21.791Z,13.8
2019-02-09T02:18:23.034Z,13.8
2019-02-09T02:19:24.278Z,13.9
2019-02-09T02:20:25.544Z,13.9
2019-02-09T02:21:26.802Z,13.9
2019-02-09T02:22:28.053Z,13.9
2019-02-09T02:23:29.308Z,13.8
2019-02-09T02:24:30.525Z,13.8
2019-02-09T02:25:31.775Z,13.8
2019-02-09T02:26:33.066Z,13.8
2019-02-09T02:27:34.312Z,13.8
2019-02-09T02:28:35.577Z,13.7
2019-02-09T02:29:36.829Z,13.7
2019-02-09T02:30:38.089Z,13.7
2019-02-09T02:31:39.388Z,13.7
2019-02-09T02:32:40.632Z,13.8
2019-02-09T02:33:41.909Z,13.8
2019-02-09T02:34:43.185Z,13.8
2019-02-09T02:35:44.437Z,13.7
2019-02-09T02:36:45.691Z,13.7
2019-02-09T02:37:46.922Z,13.8
2019-02-09T02:38:49.358Z,13.7
2019-02-09T02:39:50.778Z,13.7
2019-02-09T02:40:54.314Z,13.7
2019-02-09T02:41:55.611Z,13.5
2019-02-09T02:42:56.843Z,13.5
2019-02-09T02:43:58.089Z,13.6
2019-02-09T02:44:59.334Z,13.5
2019-02-09T02:46:00.588Z,13.5
2019-02-09T02:47:01.884Z,13.5
2019-02-09T02:48:03.148Z,13.6
2019-02-09T02:49:04.389Z,13.6
2019-02-09T02:50:05.627Z,13.5
2019-02-09T02:51:06.872Z,13.6
2019-02-09T02:52:08.126Z,13.6
2019-02-09T02:53:09.600Z,13.6
2019-02-09T02:54:10.893Z,13.6
2019-02-09T02:55:12.292Z,13.6
2019-02-09T02:56:13.547Z,13.5
2019-02-09T02:57:14.994Z,13.3
2019-02-09T02:58:16.258Z,13.4
2019-02-09T02:59:17.506Z,13.4
2019-02-09T03:00:18.753Z,13.5
2019-02-09T03:01:32.368Z,13.5
2019-02-09T03:02:33.630Z,13.5
2019-02-09T03:03:34.892Z,13.5
2019-02-09T03:04:36.176Z,13.5
2019-02-09T03:05:37.426Z,13.4
2019-02-09T03:06:38.690Z,13.4
2019-02-09T03:07:39.960Z,13.4
2019-02-09T03:08:41.226Z,13.4
2019-02-09T03:09:42.482Z,13.4
2019-02-09T03:10:43.722Z,13.4
2019-02-09T03:11:45.007Z,13.3
2019-02-09T03:12:46.322Z,13.3
2019-02-09T03:13:47.569Z,13.3
2019-02-09T03:14:48.793Z,13.2
2019-02-09T03:15:50.039Z,13.2
2019-02-09T03:16:51.292Z,13.2
2019-02-09T03:17:52.587Z,13.2
2019-02-09T03:18:53.842Z,13.2
2019-02-09T03:19:55.090Z,13.2
2019-02-09T03:20:56.346Z,13.2
2019-02-09T03:21:57.583Z,12.9
2019-02-09T03:22:58.864Z,13
2019-02-09T03:24:00.114Z,12.9
2019-02-09T03:25:01.574Z,13
2019-02-09T03:26:02.834Z,13.1
2019-02-09T03:27:04.086Z,13.1
2019-02-09T03:28:05.406Z,13.1
2019-02-09T03:29:06.660Z,13
2019-02-09T03:30:07.902Z,12.9
2019-02-09T03:31:09.178Z,12.9
2019-02-09T03:32:11.047Z,13
2019-02-09T03:33:12.574Z,13
2019-02-09T03:34:13.828Z,13
2019-02-09T03:35:15.069Z,13
2019-02-09T03:36:16.372Z,12.9
2019-02-09T03:37:17.595Z,12.8
2019-02-09T03:38:18.874Z,12.8
2019-02-09T03:39:22.582Z,12.8
2019-02-09T03:40:23.910Z,12.9
2019-02-09T03:41:25.165Z,13
2019-02-09T03:42:26.416Z,13
2019-02-09T03:43:27.703Z,12.9
2019-02-09T03:44:28.962Z,12.8
2019-02-09T03:45:30.206Z,12.8
2019-02-09T03:46:31.470Z,12.9
2019-02-09T03:47:32.714Z,12.9
2019-02-09T03:48:33.995Z,13
2019-02-09T03:49:35.232Z,13
2019-02-09T03:50:36.463Z,13
2019-02-09T03:51:37.716Z,12.9
2019-02-09T03:52:38.970Z,13
2019-02-09T03:53:40.261Z,12.9
2019-02-09T03:54:41.497Z,12.9
2019-02-09T03:55:42.744Z,12.9
2019-02-09T03:56:43.998Z,12.9
2019-02-09T03:57:45.273Z,12.9
2019-02-09T03:58:46.915Z,12.9
2019-02-09T03:59:48.155Z,12.9
2019-02-09T04:00:55.101Z,12.9
2019-02-09T04:01:56.751Z,12.9
2019-02-09T04:02:58.047Z,12.9
2019-02-09T04:03:59.328Z,12.9
2019-02-09T04:05:00.664Z,12.9
2019-02-09T04:06:01.936Z,13
2019-02-09T04:07:03.178Z,12.9
2019-02-09T04:08:04.423Z,12.9
2019-02-09T04:09:05.711Z,12.8
2019-02-09T04:10:06.962Z,12.8
2019-02-09T04:11:08.267Z,12.9
2019-02-09T04:12:09.827Z,12.9
2019-02-09T04:13:11.084Z,12.9
2019-02-09T04:14:12.797Z,12.9
2019-02-09T04:15:14.050Z,12.8
2019-02-09T04:16:15.296Z,12.8
2019-02-09T04:17:16.570Z,12.8
2019-02-09T04:18:17.801Z,12.9
2019-02-09T04:19:19.079Z,12.9
2019-02-09T04:20:20.311Z,12.9
2019-02-09T04:21:21.564Z,12.8
2019-02-09T04:22:22.823Z,12.7
2019-02-09T04:23:24.073Z,12.8
2019-02-09T04:24:25.375Z,12.7
2019-02-09T04:25:26.676Z,12.7
2019-02-09T04:26:27.935Z,12.7
2019-02-09T04:27:29.203Z,12.7
2019-02-09T04:28:30.443Z,12.6
2019-02-09T04:29:31.739Z,12.7
2019-02-09T04:30:32.999Z,12.7
2019-02-09T04:31:34.248Z,12.7
2019-02-09T04:32:35.505Z,12.7
2019-02-09T04:33:36.747Z,12.6
2019-02-09T04:34:38.267Z,12.7
2019-02-09T04:35:39.502Z,12.7
2019-02-09T04:36:40.766Z,12.7
2019-02-09T04:37:42.051Z,12.6
2019-02-09T04:38:43.297Z,12.7
2019-02-09T04:39:44.565Z,12.7
2019-02-09T04:40:45.821Z,12.7
2019-02-09T04:41:47.070Z,12.7
2019-02-09T04:42:48.303Z,12.7
2019-02-09T04:43:49.535Z,12.6
2019-02-09T04:44:50.826Z,12.6
2019-02-09T04:45:52.071Z,12.6
2019-02-09T04:46:53.346Z,12.6
2019-02-09T04:47:54.589Z,12.6
2019-02-09T04:48:55.829Z,12.6
2019-02-09T04:49:57.111Z,12.6
2019-02-09T04:50:58.372Z,12.6
2019-02-09T04:51:59.627Z,12.6
2019-02-09T04:53:00.889Z,12.7
2019-02-09T04:54:02.133Z,12.6
2019-02-09T04:55:03.400Z,12.6
2019-02-09T04:56:04.643Z,12.6
2019-02-09T04:57:05.881Z,12.6
2019-02-09T04:58:07.115Z,12.6
2019-02-09T04:59:08.353Z,12.6
2019-02-09T05:00:09.639Z,12.6
2019-02-09T05:01:13.938Z,12.5
2019-02-09T05:02:15.583Z,12.5
2019-02-09T05:03:16.795Z,12.5
2019-02-09T05:04:18.066Z,12.6
2019-02-09T05:05:19.406Z,12.6
2019-02-09T05:06:20.655Z,12.6
2019-02-09T05:07:21.911Z,12.6
2019-02-09T05:08:23.163Z,12.6
2019-02-09T05:09:24.407Z,12.5
2019-02-09T05:10:25.686Z,12.5
2019-02-09T05:11:26.937Z,12.5
2019-02-09T05:12:28.175Z,12.5
2019-02-09T05:13:32.509Z,12.6
2019-02-09T05:14:33.744Z,12.5
2019-02-09T05:15:34.999Z,12.5
2019-02-09T05:16:36.239Z,12.5
2019-02-09T05:17:40.504Z,12.5
2019-02-09T05:18:41.731Z,12.4
2019-02-09T05:19:42.985Z,12.4
2019-02-09T05:20:44.273Z,12.5
2019-02-09T05:21:45.507Z,12.5
2019-02-09T05:22:46.769Z,12.5
2019-02-09T05:23:47.997Z,12.5
2019-02-09T05:24:49.975Z,12.5
2019-02-09T05:25:51.250Z,12.4
2019-02-09T05:26:52.486Z,12.5
2019-02-09T05:27:53.724Z,12.5
2019-02-09T05:28:57.696Z,12.5
2019-02-09T05:29:58.936Z,12.5
2019-02-09T05:31:00.218Z,12.5
2019-02-09T05:32:01.490Z,12.5
2019-02-09T05:33:02.762Z,12.5
2019-02-09T05:34:04.011Z,12.5
2019-02-09T05:35:06.925Z,12.5
2019-02-09T05:36:08.197Z,12.5
2019-02-09T05:37:09.479Z,12.6
2019-02-09T05:38:10.710Z,12.6
2019-02-09T05:39:11.953Z,12.5
2019-02-09T05:40:13.194Z,12.6
2019-02-09T05:41:14.485Z,12.5
2019-02-09T05:42:15.728Z,12.5
2019-02-09T05:43:16.987Z,12.4
2019-02-09T05:44:18.261Z,12.4
2019-02-09T05:45:19.511Z,12.4
2019-02-09T05:46:20.950Z,12.5
2019-02-09T05:47:22.301Z,12.4
2019-02-09T05:48:23.919Z,12.4
2019-02-09T05:49:25.170Z,12.4
2019-02-09T05:50:26.481Z,12.4
2019-02-09T05:51:27.740Z,12.5
2019-02-09T05:52:29.008Z,12.5
2019-02-09T05:53:30.299Z,12.5
2019-02-09T05:54:31.556Z,12.4
2019-02-09T05:55:32.818Z,12.4
2019-02-09T05:56:34.085Z,12.4
2019-02-09T05:57:35.336Z,12.3
2019-02-09T05:58:36.610Z,12.3
2019-02-09T05:59:37.838Z,12.3
2019-02-09T06:00:41.342Z,12.3
2019-02-09T06:01:42.668Z,12.3
2019-02-09T06:02:45.345Z,12.3
2019-02-09T06:03:49.060Z,12.3
2019-02-09T06:04:50.296Z,12.4
2019-02-09T06:05:51.512Z,12.3
2019-02-09T06:06:52.808Z,12.4
2019-02-09T06:07:54.060Z,12.4
2019-02-09T06:08:55.308Z,12.4
2019-02-09T06:09:56.553Z,12.3
2019-02-09T06:10:57.794Z,12.3
2019-02-09T06:11:59.062Z,12.3
2019-02-09T06:13:00.305Z,12.4
2019-02-09T06:14:01.780Z,12.3
2019-02-09T06:15:03.283Z,12.3
2019-02-09T06:16:04.604Z,12.4
2019-02-09T06:17:05.917Z,12.3
2019-02-09T06:18:07.144Z,12.2
2019-02-09T06:19:08.388Z,12.4
2019-02-09T06:20:11.761Z,12.3
2019-02-09T06:21:13.004Z,12.3
2019-02-09T06:22:14.282Z,12.3
2019-02-09T06:23:15.522Z,12.3
2019-02-09T06:24:16.766Z,12.3
2019-02-09T06:25:18.014Z,12.3
2019-02-09T06:26:19.249Z,12.2
2019-02-09T06:27:20.525Z,12.3
2019-02-09T06:28:21.774Z,12.3
2019-02-09T06:29:23.022Z,12.3
2019-02-09T06:30:24.299Z,12.4
2019-02-09T06:31:25.558Z,12.3
2019-02-09T06:32:26.857Z,12.3
2019-02-09T06:33:28.288Z,12.2
2019-02-09T06:34:29.551Z,12.2
2019-02-09T06:35:33.165Z,12.3
2019-02-09T06:36:34.444Z,12.3
2019-02-09T06:38:49.263Z,12.3
2019-02-09T06:39:50.534Z,12.2
2019-02-09T06:40:51.936Z,12.3
2019-02-09T06:41:53.187Z,12.3
2019-02-09T06:42:54.479Z,12.2
2019-02-09T06:43:57.920Z,12.2
2019-02-09T06:44:59.144Z,12.2
2019-02-09T06:46:00.420Z,12.1
2019-02-09T06:47:01.709Z,12.1
2019-02-09T06:48:02.992Z,12.2
2019-02-09T06:49:04.279Z,12.2
2019-02-09T06:50:06.946Z,12.2
2019-02-09T06:51:08.176Z,12.2
2019-02-09T06:52:09.458Z,12.2
2019-02-09T06:53:10.776Z,12.2
2019-02-09T06:54:12.018Z,12.2
2019-02-09T06:55:13.287Z,12.2
2019-02-09T06:56:14.550Z,12.2
2019-02-09T06:57:15.810Z,12.1
2019-02-09T06:58:17.115Z,12.1
2019-02-09T06:59:18.373Z,12.1
2019-02-09T07:00:20.195Z,12.1
2019-02-09T07:01:21.448Z,12.1
2019-02-09T07:02:22.696Z,12.1
2019-02-09T07:03:23.989Z,12.1
2019-02-09T07:04:25.272Z,12.1
2019-02-09T07:05:26.515Z,12.1
2019-02-09T07:06:34.901Z,12.1
2019-02-09T07:07:36.142Z,12
2019-02-09T07:08:37.457Z,12
2019-02-09T07:09:38.705Z,11.9
2019-02-09T07:10:39.938Z,12
2019-02-09T07:11:41.211Z,12
2019-02-09T07:12:42.477Z,12
2019-02-09T07:13:43.792Z,12
2019-02-09T07:14:45.024Z,12
2019-02-09T07:15:46.301Z,12.1
2019-02-09T07:16:48.790Z,12.1
2019-02-09T07:17:50.408Z,12
2019-02-09T07:18:54.507Z,12
2019-02-09T07:19:55.771Z,12
2019-02-09T07:20:57.407Z,12
2019-02-09T07:21:58.660Z,12
2019-02-09T07:22:59.953Z,12
2019-02-09T07:24:01.271Z,11.9
2019-02-09T07:25:02.633Z,11.9
2019-02-09T07:26:03.911Z,12
2019-02-09T07:27:05.205Z,12.1
2019-02-09T07:28:06.459Z,12.2
2019-02-09T07:29:07.733Z,12.1
2019-02-09T07:30:09.537Z,12
2019-02-09T07:31:11.003Z,12.1
2019-02-09T07:32:12.277Z,12
2019-02-09T07:33:13.531Z,12.1
2019-02-09T07:34:14.828Z,12.1
2019-02-09T07:35:16.507Z,12.1
2019-02-09T07:36:18.209Z,12
2019-02-09T07:37:19.509Z,12.1
2019-02-09T07:38:20.843Z,12
2019-02-09T07:39:22.130Z,12
2019-02-09T07:40:23.395Z,12
2019-02-09T07:41:25.078Z,12
2019-02-09T07:42:26.565Z,12.1
2019-02-09T07:43:28.277Z,12.1
2019-02-09T07:44:29.801Z,12
2019-02-09T07:45:31.045Z,11.9
2019-02-09T07:46:32.300Z,11.9
2019-02-09T07:47:33.543Z,11.9
2019-02-09T07:48:34.801Z,11.9
2019-02-09T07:49:36.344Z,12
2019-02-09T07:50:37.838Z,12
2019-02-09T07:51:39.070Z,12.1
2019-02-09T07:52:40.327Z,12.1
2019-02-09T07:53:41.565Z,12.1
2019-02-09T07:54:42.859Z,12.1
2019-02-09T07:55:44.104Z,12.1
2019-02-09T07:56:46.333Z,12.1
2019-02-09T07:57:47.627Z,12.2
2019-02-09T07:58:50.136Z,12.2
2019-02-09T07:59:51.399Z,12.2
2019-02-09T08:00:55.021Z,12.2
2019-02-09T08:02:03.332Z,12.1
2019-02-09T08:03:05.663Z,12.1
2019-02-09T08:04:07.046Z,12
2019-02-09T08:05:08.603Z,12
2019-02-09T08:06:10.098Z,12.1
2019-02-09T08:07:14.390Z,12.1
2019-02-09T08:08:22.964Z,12
2019-02-09T08:09:26.497Z,12.1
2019-02-09T08:10:27.784Z,12.2
2019-02-09T08:11:32.403Z,12
2019-02-09T08:12:37.765Z,12.1
2019-02-09T08:13:39.028Z,12.1
2019-02-09T08:14:40.563Z,12.1
2019-02-09T08:15:41.851Z,12.1
2019-02-09T08:16:43.103Z,12
2019-02-09T08:17:44.357Z,12.1
2019-02-09T08:18:48.162Z,12.2
2019-02-09T08:19:49.414Z,12.2
2019-02-09T08:20:50.698Z,12.2
2019-02-09T08:21:52.206Z,12.2
2019-02-09T08:22:53.499Z,12.2
2019-02-09T08:23:54.739Z,12.1
2019-02-09T08:24:56.009Z,12.2
2019-02-09T08:25:57.319Z,12.2
2019-02-09T08:26:58.577Z,12.2
2019-02-09T08:27:59.834Z,12.3
2019-02-09T08:29:01.059Z,12.3
2019-02-09T08:30:02.335Z,12.3
2019-02-09T08:31:04.168Z,12.6
2019-02-09T08:32:12.411Z,13
2019-02-09T08:33:13.970Z,13.5
2019-02-09T08:34:15.501Z,13.6
2019-02-09T08:35:19.416Z,13.9
2019-02-09T08:36:21.037Z,14
2019-02-09T08:37:22.305Z,14.2
2019-02-09T08:38:23.590Z,14.3
2019-02-09T08:39:25.882Z,14.6
2019-02-09T08:40:27.147Z,14.6
2019-02-09T08:41:28.421Z,14.6
2019-02-09T08:42:29.677Z,14.8
2019-02-09T08:43:30.928Z,15
2019-02-09T08:44:32.196Z,15.2
2019-02-09T08:45:33.469Z,15.3
2019-02-09T08:46:34.880Z,15.4
2019-02-09T08:47:36.165Z,15.6
2019-02-09T08:48:40.225Z,15.8
2019-02-09T08:49:41.531Z,15.8
2019-02-09T08:50:42.791Z,15.8
2019-02-09T08:51:44.068Z,15.8
2019-02-09T08:52:46.352Z,15.9
2019-02-09T08:53:49.170Z,16
2019-02-09T08:54:50.486Z,16.1
2019-02-09T08:55:51.742Z,16.2
2019-02-09T08:56:53.028Z,16.3
2019-02-09T08:57:54.277Z,16.3
2019-02-09T08:58:55.562Z,16.4
2019-02-09T08:59:57.073Z,16.5
2019-02-09T09:00:58.386Z,16.6
2019-02-09T09:02:00.052Z,16.3
2019-02-09T09:03:01.312Z,16.2
2019-02-09T09:04:02.600Z,16.3
2019-02-09T09:05:09.502Z,16.5
2019-02-09T09:06:11.714Z,16.6
2019-02-09T09:07:13.240Z,16.7
2019-02-09T09:08:14.651Z,16.6
2019-02-09T09:09:15.943Z,16.7
2019-02-09T09:10:18.131Z,16.8
2019-02-09T09:11:19.419Z,16.9
2019-02-09T09:12:20.744Z,17
2019-02-09T09:13:22.328Z,17
2019-02-09T09:14:23.650Z,17.1
2019-02-09T09:15:24.894Z,17.2
2019-02-09T09:16:26.168Z,17.3
2019-02-09T09:17:27.475Z,17.3
2019-02-09T09:18:28.747Z,17.4
2019-02-09T09:19:30.314Z,17.4
2019-02-09T09:20:34.597Z,17.4
2019-02-09T09:21:35.842Z,17.4
2019-02-09T09:22:37.616Z,17.4
2019-02-09T09:23:41.986Z,17.5
2019-02-09T09:24:43.248Z,17.5
2019-02-09T09:25:44.830Z,17.6
2019-02-09T09:26:46.102Z,17.7
2019-02-09T09:27:47.373Z,17.7
2019-02-09T09:28:50.968Z,17.7
2019-02-09T09:29:54.444Z,17.6
2019-02-09T09:30:59.601Z,17.6
2019-02-09T09:32:00.889Z,17.7
2019-02-09T09:33:02.314Z,17.6
2019-02-09T09:34:03.639Z,17.9
2019-02-09T09:35:07.167Z,17.7
2019-02-09T09:36:08.423Z,17.7
2019-02-09T09:37:11.295Z,17.8
2019-02-09T09:38:12.624Z,17.8
2019-02-09T09:39:13.923Z,17.7
2019-02-09T09:40:15.295Z,17.7
2019-02-09T09:41:16.590Z,17.7
2019-02-09T09:42:17.951Z,17.6
2019-02-09T09:43:22.160Z,17.7
2019-02-09T09:44:23.471Z,17.9
2019-02-09T09:45:24.756Z,18
2019-02-09T09:46:26.564Z,17.9
2019-02-09T09:47:30.279Z,18
2019-02-09T09:48:34.215Z,17.9
2019-02-09T09:49:35.466Z,17.8
2019-02-09T09:50:37.015Z,17.8
2019-02-09T09:51:38.276Z,17.8
2019-02-09T09:52:39.553Z,17.7
2019-02-09T09:53:42.202Z,17.8
2019-02-09T09:54:45.082Z,17.6
2019-02-09T09:55:49.380Z,17.6
2019-02-09T09:56:50.616Z,17.5
2019-02-09T09:57:52.232Z,17.5
2019-02-09T09:58:53.540Z,17.4
2019-02-09T09:59:54.783Z,17.4
2019-02-09T10:00:58.773Z,17.3
2019-02-09T10:02:00.416Z,17.4
2019-02-09T10:03:01.690Z,17.3
2019-02-09T10:04:03.302Z,17.4
2019-02-09T10:05:04.578Z,17.4
2019-02-09T10:06:05.823Z,17.5
2019-02-09T10:07:07.484Z,17.5
2019-02-09T10:08:08.763Z,17.5
2019-02-09T10:09:12.780Z,17.6
2019-02-09T10:10:14.047Z,17.7
2019-02-09T10:11:15.360Z,17.6
2019-02-09T10:12:16.644Z,17.6
2019-02-09T10:13:20.272Z,17.6
2019-02-09T10:14:21.629Z,17.6
2019-02-09T10:15:22.887Z,17.6
2019-02-09T10:16:24.176Z,17.6
2019-02-09T10:17:25.631Z,17.6
2019-02-09T10:18:29.928Z,17.6
2019-02-09T10:19:33.903Z,17.6
2019-02-09T10:20:35.319Z,17.7
2019-02-09T10:21:36.612Z,17.7
2019-02-09T10:22:37.873Z,17.8
2019-02-09T10:23:39.629Z,17.8
2019-02-09T10:24:40.978Z,17.9
2019-02-09T10:25:42.255Z,17.9
2019-02-09T10:26:43.530Z,18
2019-02-09T10:27:44.804Z,18
2019-02-09T10:28:46.125Z,18
2019-02-09T10:29:47.480Z,18
2019-02-09T10:30:48.748Z,18.1
2019-02-09T10:31:53.994Z,18
2019-02-09T10:32:55.284Z,18
2019-02-09T10:33:56.553Z,18.1
2019-02-09T10:35:06.779Z,18
2019-02-09T10:36:08.410Z,18
2019-02-09T10:37:09.714Z,18.1
2019-02-09T10:38:11.019Z,18
2019-02-09T10:39:16.333Z,17.9
2019-02-09T10:40:17.915Z,17.9
2019-02-09T10:41:19.181Z,17.9
2019-02-09T10:42:20.748Z,17.9
2019-02-09T10:43:21.994Z,17.9
2019-02-09T10:44:23.246Z,17.9
2019-02-09T10:45:24.562Z,17.8
2019-02-09T10:46:25.845Z,17.8
2019-02-09T10:47:29.856Z,17.7
2019-02-09T10:48:31.413Z,17.6
2019-02-09T10:49:35.060Z,17.6
2019-02-09T10:50:39.071Z,17.5
2019-02-09T10:51:40.353Z,17.5
2019-02-09T10:52:41.638Z,17.4
2019-02-09T10:53:43.192Z,17.4
2019-02-09T10:54:50.208Z,17.4
2019-02-09T10:55:51.704Z,17.4
2019-02-09T10:56:53.747Z,17.4
2019-02-09T10:57:56.667Z,17.4
2019-02-09T10:58:57.967Z,17.3
2019-02-09T10:59:59.286Z,17.3
2019-02-09T11:01:00.903Z,17.2
2019-02-09T11:02:02.129Z,17.3
2019-02-09T11:03:06.113Z,17.3
2019-02-09T11:04:08.885Z,17.4
2019-02-09T11:05:10.159Z,17.3
2019-02-09T11:06:11.486Z,17.3
2019-02-09T11:07:13.044Z,17.3
2019-02-09T11:08:14.332Z,17.3
2019-02-09T11:09:15.577Z,17.3
2019-02-09T11:10:21.481Z,17.4
2019-02-09T11:11:25.515Z,17.3
2019-02-09T11:12:27.253Z,17.3
2019-02-09T11:13:28.517Z,17.2
2019-02-09T11:14:29.771Z,17.2
2019-02-09T11:15:35.942Z,17.2
2019-02-09T11:16:37.241Z,17.2
2019-02-09T11:17:38.525Z,17.3
2019-02-09T11:18:40.039Z,17.3
2019-02-09T11:19:44.308Z,17.2
2019-02-09T11:20:51.073Z,17.2
2019-02-09T11:21:52.374Z,17.2
2019-02-09T11:22:53.655Z,17.2
2019-02-09T11:23:54.930Z,17.1
2019-02-09T11:24:58.479Z,17.2
2019-02-09T11:25:59.955Z,17.2
2019-02-09T11:27:04.708Z,17.2
2019-02-09T11:28:06.011Z,17.2
2019-02-09T11:29:07.945Z,17.2
2019-02-09T11:30:09.293Z,17.2
2019-02-09T11:31:10.624Z,17.1
2019-02-09T11:32:11.924Z,17.2
2019-02-09T11:33:13.285Z,17.2
2019-02-09T11:34:17.607Z,17.2
2019-02-09T11:35:19.163Z,17.2
2019-02-09T11:36:26.582Z,17.2
2019-02-09T11:37:27.902Z,17.2
2019-02-09T11:38:29.210Z,17.2
2019-02-09T11:39:30.799Z,17.1
2019-02-09T11:40:32.050Z,17.2
2019-02-09T11:41:36.321Z,17.2
2019-02-09T11:42:40.447Z,17.2
2019-02-09T11:43:46.527Z,17.2
2019-02-09T11:44:47.787Z,17.2
2019-02-09T11:45:49.293Z,17.1
2019-02-09T11:46:53.125Z,17.2
2019-02-09T11:47:54.641Z,17.2
2019-02-09T11:48:56.172Z,17.2
2019-02-09T11:50:02.310Z,17.2
2019-02-09T11:51:12.391Z,17.2
2019-02-09T11:52:16.257Z,17.2
2019-02-09T11:53:19.650Z,17.1
2019-02-09T11:54:20.905Z,17.2
2019-02-09T11:55:31.295Z,17.1
2019-02-09T11:56:32.552Z,17.2
2019-02-09T11:57:37.257Z,17.1
2019-02-09T11:58:40.163Z,17.1
2019-02-09T11:59:42.022Z,17.2
2019-02-09T12:00:43.318Z,17.2
2019-02-09T12:01:44.818Z,17.2
2019-02-09T12:02:49.798Z,17.2
2019-02-09T12:03:51.101Z,17.3
2019-02-09T12:04:52.384Z,17.4
2019-02-09T12:05:53.666Z,17.5
2019-02-09T12:06:55.020Z,17.6
2019-02-09T12:07:58.705Z,17.7
2019-02-09T12:09:00.300Z,17.8
2019-02-09T12:10:01.639Z,18
2019-02-09T12:11:02.919Z,18.1
2019-02-09T12:12:06.423Z,18.2
2019-02-09T12:13:08.245Z,18.2
2019-02-09T12:14:11.100Z,18.3
2019-02-09T12:15:15.574Z,18.3
2019-02-09T12:16:19.414Z,18.4
2019-02-09T12:17:20.897Z,18.5
2019-02-09T12:18:22.628Z,18.5
2019-02-09T12:19:25.153Z,18.6
2019-02-09T12:20:26.459Z,18.6
2019-02-09T12:21:30.978Z,18.7
2019-02-09T12:22:33.527Z,18.8
2019-02-09T12:23:34.826Z,18.8
2019-02-09T12:24:38.840Z,18.9
2019-02-09T12:25:43.463Z,18.8
2019-02-09T12:26:44.867Z,18.9
2019-02-09T12:27:46.596Z,18.9
2019-02-09T12:28:48.040Z,18.9
2019-02-09T12:29:51.580Z,18.9
2019-02-09T12:30:54.871Z,18.9
2019-02-09T12:31:56.289Z,18.9
2019-02-09T12:32:58.349Z,18.9
2019-02-09T12:34:03.502Z,18.9
2019-02-09T12:35:05.213Z,18.9
2019-02-09T12:36:09.384Z,18.9
2019-02-09T12:37:13.568Z,18.8
2019-02-09T12:38:17.256Z,18.8
2019-02-09T12:39:19.042Z,18.8
2019-02-09T12:40:20.637Z,18.8
2019-02-09T12:41:21.916Z,18.7
2019-02-09T12:42:23.210Z,18.7
2019-02-09T12:43:28.682Z,18.7
2019-02-09T12:44:32.791Z,18.7
2019-02-09T12:45:34.098Z,18.7
2019-02-09T12:46:35.625Z,18.7
2019-02-09T12:47:37.214Z,18.6
2019-02-09T12:48:38.656Z,18.6
2019-02-09T12:49:40.308Z,18.6
2019-02-09T12:50:42.986Z,18.5
2019-02-09T12:51:44.242Z,18.5
2019-02-09T12:52:45.835Z,18.5
2019-02-09T12:53:47.306Z,18.5
2019-02-09T12:54:48.568Z,18.5
2019-02-09T12:55:49.866Z,18.4
2019-02-09T12:56:51.170Z,18.4
2019-02-09T12:57:52.414Z,18.4
2019-02-09T12:59:04.373Z,18.4
2019-02-09T13:00:05.895Z,18.4
2019-02-09T13:01:07.392Z,18.4
2019-02-09T13:02:09.850Z,18.3
2019-02-09T13:03:11.367Z,18.3
2019-02-09T13:04:13.207Z,18.3
2019-02-09T13:05:14.782Z,18.3
2019-02-09T13:06:16.491Z,18.3
2019-02-09T13:07:17.737Z,18.3
2019-02-09T13:08:21.232Z,18.3
2019-02-09T13:09:32.565Z,18.3
2019-02-09T13:10:36.855Z,18.3
2019-02-09T13:11:38.458Z,18.3
2019-02-09T13:12:39.934Z,18.3
2019-02-09T13:13:41.933Z,18.3
2019-02-09T13:14:43.210Z,18.3
2019-02-09T13:15:44.532Z,18.2
2019-02-09T13:16:46.100Z,18.2
2019-02-09T13:17:47.390Z,18.2
2019-02-09T13:18:48.805Z,18.2
2019-02-09T13:19:50.742Z,18.2
2019-02-09T13:20:52.277Z,18.2
2019-02-09T13:21:53.544Z,18.2
2019-02-09T13:22:54.946Z,18.2
2019-02-09T13:23:56.201Z,18.2
2019-02-09T13:24:57.488Z,18.2
2019-02-09T13:25:58.808Z,18.2
2019-02-09T13:27:00.355Z,18.2
2019-02-09T13:28:01.606Z,18.1
2019-02-09T13:29:02.882Z,18.2
2019-02-09T13:30:05.251Z,18.1
2019-02-09T13:31:06.693Z,18.1
2019-02-09T13:32:08.556Z,18.1
2019-02-09T13:33:09.795Z,18.1
2019-02-09T13:34:11.539Z,18.1
2019-02-09T13:35:12.915Z,18.1
2019-02-09T13:36:14.182Z,18
2019-02-09T13:37:15.502Z,18.1
2019-02-09T13:38:16.946Z,18.1
2019-02-09T13:39:20.699Z,18.1
2019-02-09T13:40:22.174Z,18.1
2019-02-09T13:41:25.706Z,18.1
2019-02-09T13:42:29.602Z,18
2019-02-09T13:43:30.965Z,18.1
2019-02-09T13:44:34.608Z,18.1
2019-02-09T13:45:37.077Z,18.1
2019-02-09T13:46:38.710Z,18.1
2019-02-09T13:47:43.284Z,18.1
2019-02-09T13:48:44.606Z,18.1